Ohio City, CO (81237)

10:33 AM MST on January 21, 2017 (GMT -0700)
ME1644 | | Change Station
Active Advisory: Winter Weather Advisory

Elev 9269 ft 38.61 °N, 106.51 °W | Updated 19 minutes ago

Mostly Cloudy
Mostly Cloudy
13.0 °F
Feels Like 13 °F
N
0.0
Wind Variable Wind from WSW
Gusts 2.0 mph

Today
High -- | Low -- °F
--% Chance of Precip.
Yesterday
High -- | Low -- °F
Precip. -- in
Pressure 29.68 in
Visibility 10.0 miles
Clouds Clear
Windchill 13 °F
Dew Point 10 °F
Humidity 86%
Rainfall 0.00 in
Snow Depth Not available.
7:19 AM 5:16 PM
Waning Crescent, 33% visible
METAR KGUC 211656Z AUTO 00000KT 10SM CLR M13/M16 A2941 RMK AO2 SLP048 T11281156 FZRANO
Pressure 29.68 in
Visibility 10.0 miles
Clouds Clear
Windchill 13 °F
Dew Point 10 °F
Humidity 86%
Rainfall 0.00 in
Snow Depth Not available.
7:19 AM 5:16 PM
Waning Crescent, 33% visible
METAR KGUC 211656Z AUTO 00000KT 10SM CLR M13/M16 A2941 RMK AO2 SLP048 T11281156 FZRANO

Get Your Daily Forecast Email!

Thanks for signing up!

Be on the lookout for a verification email in your inbox.

You'll start receiving the daily forecast at 8 AM.

×

10-Day Weather Forecast

Almanac

Astronomy

Jan. 21, 2017 Rise Set
Actual Time
Civil Twilight
Nautical Twilight
Astronomical Twilight
Moon
Length of Visible Light
Length of Day
Tomorrow will be .
, % of the Moon is Illuminated

Today's Extremes

State Highs State Lows

Community

WunderPhotos

Upload Photos

1,962,540 photos uploaded!

WunderBlog® & News

Nearby

Air Quality

  Air Quality AQ Index Pollutant
Not available.

Snow Depth

Station Depth Elevation

Earthquake Activity

City Distance Mag. Time & Date
Minimum magnitude displayed is 2.5.

Coastal Water Temperatures

Place Temperature

Stations

Nearby Weather Stations

Station Location Temp. Windchill Dew Point Humidity Wind Precip. Elev Updated Type
                   

Watches & Warnings

Winter Weather Advisory
Issued: 9:37 AM MST Jan. 21, 2017 – National Weather Service

... Winter Weather Advisory remains in effect until midnight MST
tonight...

* locations include the cities of... Gunnison... Cimarron.

* Timing... occasional snow showers will continue through this
evening. Expect breaks in the snow showers early in the day
with snow picking back up this afternoon.

* Snow accumulation... 3 to 6 inches with locally higher amounts
near Almont and Cerro Summit.

* Impacts... roadways will be snow packed with winter driving
conditions continuing through the weekend. Visibilities will
be reduced to under a half mile at times.

Precautionary/preparedness actions...

A Winter Weather Advisory means that periods of snow and/or
blowing snow will cause travel difficulties. Be prepared for
slippery roads and limited visibilities... and use caution while
driving.